Aylesford, United Kingdom
Current Conditions -  °F | °C
As of 3:50 PM on Saturday 22 Nov 2014 (Local Time) from EGKB Reporting Station
Haze Haze  
Wind Chill: 55°   Ceiling: 200
Heat Index: 55°   Visibility: 1.1mi
Dew Point: 54°   Wind: 6mph
Humidity: 94%   Direction: 210°SSW
Pressure: 29.94"   Gusts: NA
Location:  51.3°N, 0.46°E
Report Text: EGKB 221550Z 21005KT 180V240 1800 HZ BKN002 13/12 Q1014
Loading
Personal Weather Stations






























Interactive Weather Map New forecast layout! Learn more

10-Day Weather Forecast

Advertisements
Track Severe Weather on mobile